sensor_id;sensor_type;location;lat;lon;timestamp;pressure;altitude;pressure_sealevel;temperature;humidity
78123;BME280;67376;44.802;10.332;2024-03-29T00:00:37;100337.59;;;20.85;44.56
78123;BME280;67376;44.802;10.332;2024-03-29T00:03:03;100330.53;;;20.84;44.38
78123;BME280;67376;44.802;10.332;2024-03-29T00:05:29;100326.75;;;20.85;44.43
78123;BME280;67376;44.802;10.332;2024-03-29T00:07:54;100334.88;;;20.85;44.26
78123;BME280;67376;44.802;10.332;2024-03-29T00:10:19;100330.28;;;20.86;44.33
78123;BME280;67376;44.802;10.332;2024-03-29T00:12:45;100332.19;;;20.85;44.16
78123;BME280;67376;44.802;10.332;2024-03-29T00:15:10;100327.56;;;20.86;44.32
78123;BME280;67376;44.802;10.332;2024-03-29T00:17:35;100335.97;;;20.84;44.25
78123;BME280;67376;44.802;10.332;2024-03-29T00:20:01;100345.75;;;20.85;44.37
78123;BME280;67376;44.802;10.332;2024-03-29T00:22:28;100353.88;;;20.85;44.42
78123;BME280;67376;44.802;10.332;2024-03-29T00:24:53;100354.13;;;20.84;44.32
78123;BME280;67376;44.802;10.332;2024-03-29T00:27:19;100357.91;;;20.83;44.57
78123;BME280;67376;44.802;10.332;2024-03-29T00:29:44;100355.78;;;20.85;44.26
78123;BME280;67376;44.802;10.332;2024-03-29T00:32:12;100355.19;;;20.83;44.22
78123;BME280;67376;44.802;10.332;2024-03-29T00:34:37;100358.75;;;20.83;44.25
78123;BME280;67376;44.802;10.332;2024-03-29T00:37:03;100353.31;;;20.83;44.50
78123;BME280;67376;44.802;10.332;2024-03-29T00:39:29;100350.59;;;20.83;44.37
78123;BME280;67376;44.802;10.332;2024-03-29T00:41:54;100356.84;;;20.84;44.00
78123;BME280;67376;44.802;10.332;2024-03-29T00:44:20;100354.13;;;20.84;44.39
78123;BME280;67376;44.802;10.332;2024-03-29T00:46:45;100354.97;;;20.84;43.97
78123;BME280;67376;44.802;10.332;2024-03-29T00:49:10;100356.84;;;20.84;44.42
78123;BME280;67376;44.802;10.332;2024-03-29T00:51:36;100354.13;;;20.84;44.43
78123;BME280;67376;44.802;10.332;2024-03-29T00:54:01;100370.41;;;20.84;44.48
78123;BME280;67376;44.802;10.332;2024-03-29T00:56:26;100377.72;;;20.83;44.34
78123;BME280;67376;44.802;10.332;2024-03-29T00:58:52;100366.88;;;20.83;44.56
78123;BME280;67376;44.802;10.332;2024-03-29T01:01:17;100374.19;;;20.83;44.76
78123;BME280;67376;44.802;10.332;2024-03-29T01:03:43;100374.19;;;20.83;44.33
78123;BME280;67376;44.802;10.332;2024-03-29T01:06:08;100383.97;;;20.84;44.56
78123;BME280;67376;44.802;10.332;2024-03-29T01:08:34;100375.03;;;20.83;44.48
78123;BME280;67376;44.802;10.332;2024-03-29T01:10:59;100381.50;;;20.82;44.51
78123;BME280;67376;44.802;10.332;2024-03-29T01:13:24;100414.91;;;20.83;44.56
78123;BME280;67376;44.802;10.332;2024-03-29T01:15:50;100408.66;;;20.82;44.39
78123;BME280;67376;44.802;10.332;2024-03-29T01:18:15;100398.03;;;20.81;44.05
78123;BME280;67376;44.802;10.332;2024-03-29T01:20:40;100393.72;;;20.80;44.48
78123;BME280;67376;44.802;10.332;2024-03-29T01:23:07;100415.16;;;20.81;44.01
78123;BME280;67376;44.802;10.332;2024-03-29T01:25:33;100415.41;;;20.80;44.07
78123;BME280;67376;44.802;10.332;2024-03-29T01:27:59;100398.03;;;20.81;44.51
78123;BME280;67376;44.802;10.332;2024-03-29T01:30:24;100406.19;;;20.81;44.23
78123;BME280;67376;44.802;10.332;2024-03-29T01:32:49;100410.78;;;20.80;44.43
78123;BME280;67376;44.802;10.332;2024-03-29T01:35:15;100424.34;;;20.80;44.59
78123;BME280;67376;44.802;10.332;2024-03-29T01:37:40;100421.63;;;20.80;44.25
78123;BME280;67376;44.802;10.332;2024-03-29T01:40:06;100420.84;;;20.80;44.44
78123;BME280;67376;44.802;10.332;2024-03-29T01:42:32;100436.31;;;20.79;44.38
78123;BME280;67376;44.802;10.332;2024-03-29T01:44:58;100434.41;;;20.80;44.58
78123;BME280;67376;44.802;10.332;2024-03-29T01:47:24;100433.59;;;20.79;44.49
78123;BME280;67376;44.802;10.332;2024-03-29T01:49:50;100436.56;;;20.77;44.48
78123;BME280;67376;44.802;10.332;2024-03-29T01:52:16;100439.25;;;20.77;44.39
78123;BME280;67376;44.802;10.332;2024-03-29T01:54:44;100446.34;;;20.79;44.21
78123;BME280;67376;44.802;10.332;2024-03-29T01:57:09;100450.94;;;20.78;44.51
78123;BME280;67376;44.802;10.332;2024-03-29T01:59:37;100454.47;;;20.79;44.45
78123;BME280;67376;44.802;10.332;2024-03-29T02:02:03;100448.47;;;20.76;44.15
78123;BME280;67376;44.802;10.332;2024-03-29T02:04:29;100440.31;;;20.76;44.32
78123;BME280;67376;44.802;10.332;2024-03-29T02:06:54;100427.59;;;20.77;44.29
78123;BME280;67376;44.802;10.332;2024-03-29T02:09:20;100441.97;;;20.77;44.14
78123;BME280;67376;44.802;10.332;2024-03-29T02:11:46;100447.41;;;20.77;44.57
78123;BME280;67376;44.802;10.332;2024-03-29T02:14:11;100447.66;;;20.76;44.59
78123;BME280;67376;44.802;10.332;2024-03-29T02:16:36;100438.44;;;20.77;44.56
78123;BME280;67376;44.802;10.332;2024-03-29T02:19:03;100438.69;;;20.75;43.98
78123;BME280;67376;44.802;10.332;2024-03-29T02:21:29;100446.81;;;20.75;44.21
78123;BME280;67376;44.802;10.332;2024-03-29T02:24:13;100452.25;;;20.75;44.57
78123;BME280;67376;44.802;10.332;2024-03-29T02:26:41;100451.44;;;20.75;44.00
78123;BME280;67376;44.802;10.332;2024-03-29T02:29:08;100442.47;;;20.74;44.02
78123;BME280;67376;44.802;10.332;2024-03-29T02:31:34;100438.94;;;20.74;44.25
78123;BME280;67376;44.802;10.332;2024-03-29T02:34:00;100439.75;;;20.74;44.28
78123;BME280;67376;44.802;10.332;2024-03-29T02:36:26;100433.50;;;20.74;44.48
78123;BME280;67376;44.802;10.332;2024-03-29T02:38:51;100439.19;;;20.72;44.37
78123;BME280;67376;44.802;10.332;2024-03-29T02:41:16;100444.34;;;20.74;44.44
78123;BME280;67376;44.802;10.332;2024-03-29T02:43:42;100444.59;;;20.72;44.32
78123;BME280;67376;44.802;10.332;2024-03-29T02:46:07;100444.59;;;20.72;44.29
78123;BME280;67376;44.802;10.332;2024-03-29T02:48:32;100445.66;;;20.71;43.77
78123;BME280;67376;44.802;10.332;2024-03-29T02:50:58;100447.31;;;20.72;43.90
78123;BME280;67376;44.802;10.332;2024-03-29T02:53:23;100461.94;;;20.71;44.55
78123;BME280;67376;44.802;10.332;2024-03-29T02:55:49;100463.84;;;20.71;44.46
78123;BME280;67376;44.802;10.332;2024-03-29T02:58:14;100476.56;;;20.70;44.51
78123;BME280;67376;44.802;10.332;2024-03-29T03:00:40;100471.16;;;20.70;44.16
78123;BME280;67376;44.802;10.332;2024-03-29T03:03:05;100469.50;;;20.69;44.03
78123;BME280;67376;44.802;10.332;2024-03-29T03:05:31;100475.75;;;20.70;44.17
78123;BME280;67376;44.802;10.332;2024-03-29T03:07:57;100488.50;;;20.69;44.23
78123;BME280;67376;44.802;10.332;2024-03-29T03:10:48;100489.31;;;20.70;43.70
78123;BME280;67376;44.802;10.332;2024-03-29T03:13:40;100496.63;;;20.69;44.18
78123;BME280;67376;44.802;10.332;2024-03-29T03:16:05;100503.94;;;20.69;44.07
78123;BME280;67376;44.802;10.332;2024-03-29T03:18:31;100492.28;;;20.68;44.15
78123;BME280;67376;44.802;10.332;2024-03-29T03:20:57;100486.03;;;20.68;44.07
78123;BME280;67376;44.802;10.332;2024-03-29T03:23:23;100481.41;;;20.68;44.08
78123;BME280;67376;44.802;10.332;2024-03-29T03:26:00;100480.84;;;20.66;44.21
78123;BME280;67376;44.802;10.332;2024-03-29T03:28:25;100487.09;;;20.67;44.36
78123;BME280;67376;44.802;10.332;2024-03-29T03:30:52;100489.81;;;20.67;44.02
78123;BME280;67376;44.802;10.332;2024-03-29T03:33:18;100497.13;;;20.66;44.05
78123;BME280;67376;44.802;10.332;2024-03-29T03:35:44;100495.47;;;20.65;44.00
78123;BME280;67376;44.802;10.332;2024-03-29T03:38:09;100503.84;;;20.64;43.92
78123;BME280;67376;44.802;10.332;2024-03-29T03:40:35;100514.72;;;20.64;44.30
78123;BME280;67376;44.802;10.332;2024-03-29T03:43:04;100507.63;;;20.63;44.36
78123;BME280;67376;44.802;10.332;2024-03-29T03:45:38;100507.38;;;20.64;44.61
78123;BME280;67376;44.802;10.332;2024-03-29T03:48:05;100522.84;;;20.64;43.85
78123;BME280;67376;44.802;10.332;2024-03-29T03:50:30;100523.91;;;20.63;44.21
78123;BME280;67376;44.802;10.332;2024-03-29T03:52:56;100532.03;;;20.63;44.23
78123;BME280;67376;44.802;10.332;2024-03-29T03:55:22;100533.94;;;20.62;44.22
78123;BME280;67376;44.802;10.332;2024-03-29T03:57:47;100538.53;;;20.62;44.30
78123;BME280;67376;44.802;10.332;2024-03-29T04:00:13;100539.34;;;20.62;44.25
78123;BME280;67376;44.802;10.332;2024-03-29T04:02:38;100541.25;;;20.62;44.19
78123;BME280;67376;44.802;10.332;2024-03-29T04:05:04;100539.34;;;20.62;44.05
78123;BME280;67376;44.802;10.332;2024-03-29T04:07:30;100539.59;;;20.61;43.88
78123;BME280;67376;44.802;10.332;2024-03-29T04:09:55;100534.41;;;20.59;44.18
78123;BME280;67376;44.802;10.332;2024-03-29T04:12:20;100536.88;;;20.61;44.65
78123;BME280;67376;44.802;10.332;2024-03-29T04:14:46;100542.56;;;20.59;44.68
78123;BME280;67376;44.802;10.332;2024-03-29T04:17:11;100571.56;;;20.59;44.03
78123;BME280;67376;44.802;10.332;2024-03-29T04:19:37;100554.47;;;20.58;44.37
78123;BME280;67376;44.802;10.332;2024-03-29T04:22:03;100543.63;;;20.58;44.61
78123;BME280;67376;44.802;10.332;2024-03-29T04:24:28;100525.69;;;20.57;44.69
78123;BME280;67376;44.802;10.332;2024-03-29T04:26:54;100534.66;;;20.58;44.37
78123;BME280;67376;44.802;10.332;2024-03-29T04:29:19;100520.50;;;20.56;44.54
78123;BME280;67376;44.802;10.332;2024-03-29T04:31:45;100522.16;;;20.57;44.17
78123;BME280;67376;44.802;10.332;2024-03-29T04:34:11;100523.22;;;20.56;44.29
78123;BME280;67376;44.802;10.332;2024-03-29T04:36:36;100530.31;;;20.57;44.36
78123;BME280;67376;44.802;10.332;2024-03-29T04:39:02;100532.19;;;20.56;44.68
78123;BME280;67376;44.802;10.332;2024-03-29T04:41:27;100538.69;;;20.55;44.26
78123;BME280;67376;44.802;10.332;2024-03-29T04:43:52;100533.25;;;20.55;43.86
78123;BME280;67376;44.802;10.332;2024-03-29T04:46:18;100533.50;;;20.54;44.08
78123;BME280;67376;44.802;10.332;2024-03-29T04:48:43;100543.53;;;20.53;44.45
78123;BME280;67376;44.802;10.332;2024-03-29T04:51:11;100552.47;;;20.54;44.45
78123;BME280;67376;44.802;10.332;2024-03-29T04:53:36;100542.69;;;20.53;43.85
78123;BME280;67376;44.802;10.332;2024-03-29T04:56:03;100541.88;;;20.52;44.26
78123;BME280;67376;44.802;10.332;2024-03-29T04:58:29;100544.59;;;20.52;44.01
78123;BME280;67376;44.802;10.332;2024-03-29T05:00:55;100551.06;;;20.51;44.34
78123;BME280;67376;44.802;10.332;2024-03-29T05:03:21;100552.72;;;20.52;44.12
78123;BME280;67376;44.802;10.332;2024-03-29T05:05:47;100552.97;;;20.51;44.49
78123;BME280;67376;44.802;10.332;2024-03-29T05:08:13;100573.00;;;20.50;44.21
78123;BME280;67376;44.802;10.332;2024-03-29T05:10:41;100576.53;;;20.50;44.47
78123;BME280;67376;44.802;10.332;2024-03-29T05:13:07;100573.00;;;20.50;44.36
78123;BME280;67376;44.802;10.332;2024-03-29T05:15:32;100575.72;;;20.50;44.38
78123;BME280;67376;44.802;10.332;2024-03-29T05:17:58;100593.88;;;20.49;44.33
78123;BME280;67376;44.802;10.332;2024-03-29T05:20:23;100604.97;;;20.48;44.36
78123;BME280;67376;44.802;10.332;2024-03-29T05:22:49;100598.47;;;20.49;44.84
78123;BME280;67376;44.802;10.332;2024-03-29T05:25:14;100600.38;;;20.48;43.85
78123;BME280;67376;44.802;10.332;2024-03-29T05:27:39;100591.66;;;20.46;44.47
78123;BME280;67376;44.802;10.332;2024-03-29T05:30:05;100606.03;;;20.47;44.20
78123;BME280;67376;44.802;10.332;2024-03-29T05:32:32;100617.94;;;20.46;44.17
78123;BME280;67376;44.802;10.332;2024-03-29T05:34:57;100621.47;;;20.46;44.04
78123;BME280;67376;44.802;10.332;2024-03-29T05:37:23;100614.41;;;20.45;44.30
78123;BME280;67376;44.802;10.332;2024-03-29T05:39:53;100626.91;;;20.46;44.37
78123;BME280;67376;44.802;10.332;2024-03-29T05:42:31;100624.19;;;20.46;44.26
78123;BME280;67376;44.802;10.332;2024-03-29T05:44:56;100628.78;;;20.46;44.41
78123;BME280;67376;44.802;10.332;2024-03-29T05:47:22;100623.59;;;20.44;44.23
78123;BME280;67376;44.802;10.332;2024-03-29T05:49:47;100623.59;;;20.44;44.14
78123;BME280;67376;44.802;10.332;2024-03-29T05:52:13;100622.53;;;20.45;44.13
78123;BME280;67376;44.802;10.332;2024-03-29T05:54:44;100631.75;;;20.44;44.03
78123;BME280;67376;44.802;10.332;2024-03-29T05:57:10;100622.78;;;20.43;44.04
78123;BME280;67376;44.802;10.332;2024-03-29T05:59:36;100622.78;;;20.43;44.35
78123;BME280;67376;44.802;10.332;2024-03-29T06:02:02;100620.91;;;20.44;43.94
78123;BME280;67376;44.802;10.332;2024-03-29T06:04:27;100613.81;;;20.43;44.03
78123;BME280;67376;44.802;10.332;2024-03-29T06:06:59;100609.22;;;20.43;44.05
78123;BME280;67376;44.802;10.332;2024-03-29T06:09:24;100604.63;;;20.44;44.28
78123;BME280;67376;44.802;10.332;2024-03-29T06:11:50;100617.13;;;20.45;44.15
78123;BME280;67376;44.802;10.332;2024-03-29T06:14:15;100611.94;;;20.43;44.36
78123;BME280;67376;44.802;10.332;2024-03-29T06:16:59;100619.00;;;20.44;44.62
78123;BME280;67376;44.802;10.332;2024-03-29T06:19:43;100614.41;;;20.45;44.62
78123;BME280;67376;44.802;10.332;2024-03-29T06:22:09;100617.34;;;20.43;44.48
78123;BME280;67376;44.802;10.332;2024-03-29T06:24:34;100619.84;;;20.45;44.37
78123;BME280;67376;44.802;10.332;2024-03-29T06:27:00;100627.16;;;20.44;43.69
78123;BME280;67376;44.802;10.332;2024-03-29T06:29:26;100637.16;;;20.44;44.23
78123;BME280;67376;44.802;10.332;2024-03-29T06:31:51;100635.28;;;20.44;44.57
78123;BME280;67376;44.802;10.332;2024-03-29T06:34:17;100643.41;;;20.44;44.53
78123;BME280;67376;44.802;10.332;2024-03-29T06:36:42;100639.88;;;20.44;43.99
78123;BME280;67376;44.802;10.332;2024-03-29T06:39:07;100652.38;;;20.45;44.32
78123;BME280;67376;44.802;10.332;2024-03-29T06:41:33;100652.38;;;20.45;44.30
78123;BME280;67376;44.802;10.332;2024-03-29T06:43:59;100654.84;;;20.47;44.36
78123;BME280;67376;44.802;10.332;2024-03-29T06:46:24;100654.03;;;20.46;44.27
78123;BME280;67376;44.802;10.332;2024-03-29T06:48:49;100660.28;;;20.47;44.32
78123;BME280;67376;44.802;10.332;2024-03-29T06:51:15;100670.28;;;20.46;43.83
78123;BME280;67376;44.802;10.332;2024-03-29T06:53:40;100665.47;;;20.48;43.94
78123;BME280;67376;44.802;10.332;2024-03-29T06:56:07;100665.47;;;20.48;44.20
78123;BME280;67376;44.802;10.332;2024-03-29T06:58:32;100668.41;;;20.47;44.55
78123;BME280;67376;44.802;10.332;2024-03-29T07:00:58;100674.31;;;20.43;44.69
78123;BME280;67376;44.802;10.332;2024-03-29T07:03:24;100676.66;;;20.40;44.94
78123;BME280;67376;44.802;10.332;2024-03-29T07:05:49;100661.66;;;20.37;44.30
78123;BME280;67376;44.802;10.332;2024-03-29T07:08:15;100668.97;;;20.37;44.87
78123;BME280;67376;44.802;10.332;2024-03-29T07:10:40;100673.56;;;20.36;44.55
78123;BME280;67376;44.802;10.332;2024-03-29T07:13:07;100668.97;;;20.37;45.24
78123;BME280;67376;44.802;10.332;2024-03-29T07:15:33;100664.63;;;20.36;44.76
78123;BME280;67376;44.802;10.332;2024-03-29T07:17:58;100655.88;;;20.34;44.75
78123;BME280;67376;44.802;10.332;2024-03-29T07:20:25;100645.88;;;20.34;44.88
78123;BME280;67376;44.802;10.332;2024-03-29T07:22:50;100655.66;;;20.35;44.45
78123;BME280;67376;44.802;10.332;2024-03-29T07:25:16;100664.03;;;20.34;44.64
78123;BME280;67376;44.802;10.332;2024-03-29T07:27:41;100647.75;;;20.34;44.90
78123;BME280;67376;44.802;10.332;2024-03-29T07:30:07;100659.44;;;20.34;44.85
78123;BME280;67376;44.802;10.332;2024-03-29T07:32:33;100655.06;;;20.33;45.54
78123;BME280;67376;44.802;10.332;2024-03-29T07:34:59;100659.44;;;20.34;44.73
78123;BME280;67376;44.802;10.332;2024-03-29T07:37:25;100669.44;;;20.34;45.43
78123;BME280;67376;44.802;10.332;2024-03-29T07:39:50;100676.53;;;20.35;44.60
78123;BME280;67376;44.802;10.332;2024-03-29T07:42:16;100677.34;;;20.35;44.80
78123;BME280;67376;44.802;10.332;2024-03-29T07:44:42;100667.56;;;20.34;45.07
78123;BME280;67376;44.802;10.332;2024-03-29T07:47:07;100665.69;;;20.35;45.34
78123;BME280;67376;44.802;10.332;2024-03-29T07:49:33;100668.38;;;20.35;44.77
78123;BME280;67376;44.802;10.332;2024-03-29T07:51:58;100661.91;;;20.36;45.50
78123;BME280;67376;44.802;10.332;2024-03-29T07:54:27;100667.31;;;20.36;45.29
78123;BME280;67376;44.802;10.332;2024-03-29T07:56:52;100665.22;;;20.38;45.32
78123;BME280;67376;44.802;10.332;2024-03-29T07:59:18;100664.63;;;20.36;45.16
78123;BME280;67376;44.802;10.332;2024-03-29T08:01:45;100665.22;;;20.38;45.35
78123;BME280;67376;44.802;10.332;2024-03-29T08:04:10;100660.84;;;20.37;45.19
78123;BME280;67376;44.802;10.332;2024-03-29T08:06:35;100680.66;;;20.37;45.33
78123;BME280;67376;44.802;10.332;2024-03-29T08:09:01;100679.63;;;20.38;45.41
78123;BME280;67376;44.802;10.332;2024-03-29T08:11:27;100679.63;;;20.38;45.42
78123;BME280;67376;44.802;10.332;2024-03-29T08:13:52;100684.22;;;20.38;45.08
78123;BME280;67376;44.802;10.332;2024-03-29T08:16:17;100676.09;;;20.38;44.63
78123;BME280;67376;44.802;10.332;2024-03-29T08:18:46;100676.09;;;20.38;45.15
78123;BME280;67376;44.802;10.332;2024-03-29T08:21:12;100679.63;;;20.38;45.57
78123;BME280;67376;44.802;10.332;2024-03-29T08:23:39;100677.94;;;20.37;45.36
78123;BME280;67376;44.802;10.332;2024-03-29T08:26:05;100675.47;;;20.36;45.77
78123;BME280;67376;44.802;10.332;2024-03-29T08:28:30;100689.84;;;20.36;45.33
78123;BME280;67376;44.802;10.332;2024-03-29T08:31:00;100696.09;;;20.37;45.62
78123;BME280;67376;44.802;10.332;2024-03-29T08:33:26;100697.97;;;20.36;45.44
78123;BME280;67376;44.802;10.332;2024-03-29T08:35:53;100704.47;;;20.35;45.47
78123;BME280;67376;44.802;10.332;2024-03-29T08:38:18;100713.41;;;20.36;45.57
78123;BME280;67376;44.802;10.332;2024-03-29T08:40:44;100725.09;;;20.36;46.13
78123;BME280;67376;44.802;10.332;2024-03-29T08:43:13;100723.00;;;20.38;46.10
78123;BME280;67376;44.802;10.332;2024-03-29T08:45:40;100723.84;;;20.39;45.87
78123;BME280;67376;44.802;10.332;2024-03-29T08:48:08;100725.72;;;20.38;45.82
78123;BME280;67376;44.802;10.332;2024-03-29T08:50:34;100715.69;;;20.39;46.14
78123;BME280;67376;44.802;10.332;2024-03-29T08:53:01;100714.88;;;20.38;45.58
78123;BME280;67376;44.802;10.332;2024-03-29T08:55:29;100730.91;;;20.40;45.34
78123;BME280;67376;44.802;10.332;2024-03-29T08:57:54;100732.78;;;20.39;45.63
78123;BME280;67376;44.802;10.332;2024-03-29T09:00:19;100735.50;;;20.39;45.72
78123;BME280;67376;44.802;10.332;2024-03-29T09:02:46;100741.75;;;20.40;45.44
78123;BME280;67376;44.802;10.332;2024-03-29T09:05:11;100740.69;;;20.41;45.65
78123;BME280;67376;44.802;10.332;2024-03-29T09:07:37;100751.53;;;20.41;45.92
78123;BME280;67376;44.802;10.332;2024-03-29T09:10:04;100742.34;;;20.42;45.65
78123;BME280;67376;44.802;10.332;2024-03-29T09:12:29;100738.81;;;20.41;45.65
78123;BME280;67376;44.802;10.332;2024-03-29T09:14:55;100731.72;;;20.40;45.85
78123;BME280;67376;44.802;10.332;2024-03-29T09:17:20;100730.66;;;20.41;45.67
78123;BME280;67376;44.802;10.332;2024-03-29T09:19:49;100723.59;;;20.40;45.69
78123;BME280;67376;44.802;10.332;2024-03-29T09:22:15;100721.72;;;20.41;45.78
78123;BME280;67376;44.802;10.332;2024-03-29T09:24:41;100720.06;;;20.40;45.88
78123;BME280;67376;44.802;10.332;2024-03-29T09:27:06;100722.78;;;20.40;45.67
78123;BME280;67376;44.802;10.332;2024-03-29T09:29:32;100734.22;;;20.42;45.65
78123;BME280;67376;44.802;10.332;2024-03-29T09:31:57;100726.91;;;20.42;45.57
78123;BME280;67376;44.802;10.332;2024-03-29T09:34:23;100736.69;;;20.43;45.68
78123;BME280;67376;44.802;10.332;2024-03-29T09:36:48;100748.34;;;20.44;45.67
78123;BME280;67376;44.802;10.332;2024-03-29T09:39:14;100745.66;;;20.44;45.78
78123;BME280;67376;44.802;10.332;2024-03-29T09:41:40;100742.94;;;20.44;45.19
78123;BME280;67376;44.802;10.332;2024-03-29T09:44:10;100743.75;;;20.44;45.81
78123;BME280;67376;44.802;10.332;2024-03-29T09:46:36;100749.19;;;20.44;46.03
78123;BME280;67376;44.802;10.332;2024-03-29T09:49:05;100731.03;;;20.45;45.65
78123;BME280;67376;44.802;10.332;2024-03-29T09:51:32;100742.69;;;20.46;45.88
78123;BME280;67376;44.802;10.332;2024-03-29T09:53:59;100753.53;;;20.46;45.66
78123;BME280;67376;44.802;10.332;2024-03-29T09:56:27;100743.75;;;20.44;45.99
78123;BME280;67376;44.802;10.332;2024-03-29T09:58:53;100745.66;;;20.44;46.01
78123;BME280;67376;44.802;10.332;2024-03-29T10:01:19;100749.78;;;20.47;46.08
78123;BME280;67376;44.802;10.332;2024-03-29T10:03:48;100737.28;;;20.46;46.22
78123;BME280;67376;44.802;10.332;2024-03-29T10:06:15;100722.88;;;20.45;46.17
78123;BME280;67376;44.802;10.332;2024-03-29T10:08:40;100732.09;;;20.44;46.12
78123;BME280;67376;44.802;10.332;2024-03-29T10:11:06;100716.88;;;20.43;46.07
78123;BME280;67376;44.802;10.332;2024-03-29T10:13:32;100715.81;;;20.44;46.26
78123;BME280;67376;44.802;10.332;2024-03-29T10:15:58;100713.56;;;20.41;45.71
78123;BME280;67376;44.802;10.332;2024-03-29T10:18:26;100700.00;;;20.41;45.52
78123;BME280;67376;44.802;10.332;2024-03-29T10:21:02;100702.97;;;20.39;45.43
78123;BME280;67376;44.802;10.332;2024-03-29T10:23:28;100708.38;;;20.39;45.66
78123;BME280;67376;44.802;10.332;2024-03-29T10:25:54;100710.84;;;20.41;46.23
78123;BME280;67376;44.802;10.332;2024-03-29T10:28:19;100703.56;;;20.41;45.69
78123;BME280;67376;44.802;10.332;2024-03-29T10:30:45;100705.19;;;20.42;45.55
78123;BME280;67376;44.802;10.332;2024-03-29T10:33:10;100703.31;;;20.43;45.89
78123;BME280;67376;44.802;10.332;2024-03-29T10:35:35;100698.72;;;20.43;46.11
78123;BME280;67376;44.802;10.332;2024-03-29T10:38:04;100713.94;;;20.44;45.99
78123;BME280;67376;44.802;10.332;2024-03-29T10:40:30;100706.63;;;20.45;46.16
78123;BME280;67376;44.802;10.332;2024-03-29T10:42:56;100696.59;;;20.46;45.73
78123;BME280;67376;44.802;10.332;2024-03-29T10:45:22;100703.91;;;20.45;45.71
78123;BME280;67376;44.802;10.332;2024-03-29T10:47:49;100695.53;;;20.47;45.76
78123;BME280;67376;44.802;10.332;2024-03-29T10:50:14;100690.94;;;20.47;45.86
78123;BME280;67376;44.802;10.332;2024-03-29T10:52:43;100686.34;;;20.48;45.87
78123;BME280;67376;44.802;10.332;2024-03-29T10:55:11;100687.97;;;20.49;45.96
78123;BME280;67376;44.802;10.332;2024-03-29T10:57:43;100686.09;;;20.49;45.79
78123;BME280;67376;44.802;10.332;2024-03-29T11:00:12;100694.22;;;20.49;46.05
78123;BME280;67376;44.802;10.332;2024-03-29T11:02:55;100696.94;;;20.49;46.51
78123;BME280;67376;44.802;10.332;2024-03-29T11:05:23;100693.16;;;20.50;46.09
78123;BME280;67376;44.802;10.332;2024-03-29T11:07:50;100697.78;;;20.50;45.85
78123;BME280;67376;44.802;10.332;2024-03-29T11:10:33;100698.59;;;20.50;45.90
78123;BME280;67376;44.802;10.332;2024-03-29T11:13:20;100687.75;;;20.50;45.66
78123;BME280;67376;44.802;10.332;2024-03-29T11:15:50;100674.19;;;20.50;46.24
78123;BME280;67376;44.802;10.332;2024-03-29T11:18:16;100685.84;;;20.51;46.35
78123;BME280;67376;44.802;10.332;2024-03-29T11:20:44;100683.97;;;20.51;45.81
78123;BME280;67376;44.802;10.332;2024-03-29T11:23:14;100686.69;;;20.51;46.35
78123;BME280;67376;44.802;10.332;2024-03-29T11:25:45;100678.53;;;20.51;46.25
78123;BME280;67376;44.802;10.332;2024-03-29T11:28:15;100687.28;;;20.53;45.81
78123;BME280;67376;44.802;10.332;2024-03-29T11:30:47;100678.31;;;20.53;46.37
78123;BME280;67376;44.802;10.332;2024-03-29T11:33:32;100682.66;;;20.54;46.33
78123;BME280;67376;44.802;10.332;2024-03-29T11:35:59;100679.97;;;20.54;46.44
78123;BME280;67376;44.802;10.332;2024-03-29T11:38:33;100666.41;;;20.54;46.27
78123;BME280;67376;44.802;10.332;2024-03-29T11:43:31;100652.00;;;20.53;46.24
78123;BME280;67376;44.802;10.332;2024-03-29T11:45:58;100640.34;;;20.53;46.44
78123;BME280;67376;44.802;10.332;2024-03-29T11:48:27;100649.06;;;20.55;45.94
78123;BME280;67376;44.802;10.332;2024-03-29T11:50:53;100646.34;;;20.55;45.86
78123;BME280;67376;44.802;10.332;2024-03-29T11:53:19;100638.44;;;20.53;46.31
78123;BME280;67376;44.802;10.332;2024-03-29T11:55:45;100649.06;;;20.55;46.55
78123;BME280;67376;44.802;10.332;2024-03-29T11:58:10;100642.81;;;20.54;46.05
78123;BME280;67376;44.802;10.332;2024-03-29T12:00:38;100634.66;;;20.54;46.06
78123;BME280;67376;44.802;10.332;2024-03-29T12:03:04;100632.78;;;20.55;46.11
78123;BME280;67376;44.802;10.332;2024-03-29T12:05:30;100623.81;;;20.54;45.89
78123;BME280;67376;44.802;10.332;2024-03-29T12:07:57;100621.94;;;20.55;46.14
78123;BME280;67376;44.802;10.332;2024-03-29T12:10:27;100617.56;;;20.54;46.32
78123;BME280;67376;44.802;10.332;2024-03-29T12:12:56;100618.41;;;20.54;46.20
78123;BME280;67376;44.802;10.332;2024-03-29T12:15:23;100619.00;;;20.56;46.16
78123;BME280;67376;44.802;10.332;2024-03-29T12:17:56;100620.88;;;20.56;46.11
78123;BME280;67376;44.802;10.332;2024-03-29T12:20:22;100619.22;;;20.55;46.02
78123;BME280;67376;44.802;10.332;2024-03-29T12:22:48;100612.16;;;20.54;45.94
78123;BME280;67376;44.802;10.332;2024-03-29T12:25:13;100609.69;;;20.52;45.83
78123;BME280;67376;44.802;10.332;2024-03-29T12:27:39;100610.75;;;20.51;45.92
78123;BME280;67376;44.802;10.332;2024-03-29T12:30:05;100609.09;;;20.50;46.05
78123;BME280;67376;44.802;10.332;2024-03-29T12:32:31;100609.09;;;20.50;45.75
78123;BME280;67376;44.802;10.332;2024-03-29T12:35:09;100612.88;;;20.49;46.08
78123;BME280;67376;44.802;10.332;2024-03-29T12:37:35;100603.91;;;20.49;46.25
78123;BME280;67376;44.802;10.332;2024-03-29T12:40:01;100598.47;;;20.49;46.12